Tucson, AZ

4:33 PM MST on February 06, 2016 (GMT -0700)
Copper Crest | | Change Station
CLOSE
Current Station
Personal Weather Station
Location: Tucson, AZ
Elevation: 2484 ft
Nearby Weather Stations

Elev 2484 ft 32.18 °N, 111.13 °W | Updated 14 minutes ago

Partly Cloudy
Partly Cloudy
74.8 °F
Feels Like 74 °F
N
0.0
Wind Variable Wind from ESE

Today
High -- | Low -- °F
--% Chance of Precip.
Yesterday
High -- | Low -- °F
Precip. -- in
Pressure 30.18 in
Visibility 10.0 miles
Clouds Clear
Heat Index 74 °F
Dew Point 9 °F
Humidity 8%
Rainfall 0.00 in
Snow Depth Not available.
7:15 AM 6:02 PM
Waning Crescent, 4% visible
METAR KRYN 062245Z 06009KT 10SM CLR 24/M11 A3018
Pressure 30.18 in
Visibility 10.0 miles
Clouds Clear
Heat Index 74 °F
Dew Point 9 °F
Humidity 8%
Rainfall 0.00 in
Snow Depth Not available.
7:15 AM 6:02 PM
Waning Crescent, 4% visible
METAR KRYN 062245Z 06009KT 10SM CLR 24/M11 A3018

10-Day Weather Forecast

Almanac

Astronomy

Feb. 06, 2016 Rise Set
Actual Time
Civil Twilight
Nautical Twilight
Astronomical Twilight
Moon
Length of Visible Light
Length of Day
Tomorrow will be .
, % of the Moon is Illuminated

Today's Extremes

State Highs State Lows

Community

WunderPhotos

Upload Photos

1,891,098 photos uploaded!

WunderBlog® & News

Nearby

Air Quality

  Air Quality AQ Index Pollutant
Not available.

Snow Depth

Station Depth Elevation

Earthquake Activity

City Distance Mag. Time & Date
Minimum magnitude displayed is 2.5.

Coastal Water Temperatures

Place Temperature

Stations

Nearby Weather Stations

Station Location Temp. Windchill Dew Point Humidity Wind Precip. Elev Updated Type
                   

Watches & Warnings

There are currently no watches in effect.